Time;durP1;ratioP1;P1;durP2;ratioP2;P2;SDS_P1;SDS_P2;PMS_P1;PMS_P2;Temp;Humidity;BMP_temperature;BMP_pressure;BME280_temperature;BME280_humidity;BME280_pressure;Samples;Min_cycle;Max_cycle;Signal;HPM_P1;HPM_P2
2021/11/29 00:00:52;;;;;;;13.77;12.38;;;;;;;6.13;55.67;93539.00;4993897;28;20032;-73
2021/11/29 00:03:18;;;;;;;13.43;12.13;;;;;;;5.24;59.00;93540.44;4994194;28;20046;-73
2021/11/29 00:05:44;;;;;;;13.73;11.88;;;;;;;4.42;60.91;93543.50;4994500;28;20116;-73
2021/11/29 00:08:09;;;;;;;14.73;12.15;;;;;;;4.24;61.99;93551.59;4994097;28;20030;-72
2021/11/29 00:10:35;;;;;;;13.73;12.30;;;;;;;4.04;62.96;93547.63;4996236;28;20018;-73
2021/11/29 00:13:01;;;;;;;13.27;11.88;;;;;;;4.44;61.99;93562.38;4993996;28;20030;-73
2021/11/29 00:15:27;;;;;;;12.57;11.38;;;;;;;4.40;62.04;93563.28;4993987;28;20105;-73
2021/11/29 00:17:52;;;;;;;14.38;12.25;;;;;;;4.97;60.05;93560.72;4992733;28;20065;-73
2021/11/29 00:20:18;;;;;;;13.63;12.27;;;;;;;5.16;59.75;93566.47;4992578;28;20023;-73
2021/11/29 00:22:44;;;;;;;14.40;11.73;;;;;;;4.44;61.55;93566.88;4993676;28;20084;-74
2021/11/29 00:25:10;;;;;;;15.52;13.07;;;;;;;5.18;59.90;93559.03;4996910;28;20026;-70
2021/11/29 00:27:37;;;;;;;13.73;12.25;;;;;;;4.58;60.74;93567.56;4996114;28;20053;-71
2021/11/29 00:30:06;;;;;;;15.55;12.52;;;;;;;4.33;61.84;93571.63;4993346;28;20085;-71
2021/11/29 00:32:31;;;;;;;14.38;12.57;;;;;;;4.75;60.42;93573.97;4993229;28;20526;-72
2021/11/29 00:34:56;;;;;;;13.90;12.40;;;;;;;5.29;60.27;93574.56;4993732;28;20084;-71
2021/11/29 00:37:24;;;;;;;14.80;12.73;;;;;;;4.89;60.09;93572.00;4993553;28;20078;-74
2021/11/29 00:39:49;;;;;;;14.98;13.50;;;;;;;4.55;61.43;93572.66;4994920;28;20065;-72
2021/11/29 00:42:15;;;;;;;14.30;12.73;;;;;;;4.32;62.43;93577.19;4996894;28;20117;-72
2021/11/29 00:44:40;;;;;;;15.35;13.85;;;;;;;4.42;62.19;93582.19;4993563;28;20122;-73
2021/11/29 00:47:06;;;;;;;17.77;13.82;;;;;;;4.76;61.43;93575.50;4994205;28;20054;-72
2021/11/29 00:49:31;;;;;;;18.85;13.88;;;;;;;4.40;61.96;93581.72;4993615;28;20030;-74
2021/11/29 00:51:56;;;;;;;17.33;14.68;;;;;;;4.17;63.16;93584.41;4992870;28;20034;-74
2021/11/29 00:54:22;;;;;;;21.27;15.13;;;;;;;5.13;61.15;93572.38;4992717;28;20093;-71
2021/11/29 00:56:47;;;;;;;18.63;15.30;;;;;;;4.98;60.45;93585.19;5004927;28;20035;-72
2021/11/29 00:59:12;;;;;;;20.63;15.45;;;;;;;4.55;61.69;93578.69;4991538;28;20081;-72
2021/11/29 01:01:38;;;;;;;19.75;15.15;;;;;;;4.87;61.31;93589.97;4991771;28;20427;-73
2021/11/29 01:04:04;;;;;;;21.40;16.15;;;;;;;5.62;60.09;93588.06;4992864;28;20030;-73
2021/11/29 01:06:29;;;;;;;20.00;16.10;;;;;;;5.60;58.67;93587.63;4992249;28;20488;-73
2021/11/29 01:08:55;;;;;;;20.10;15.52;;;;;;;4.89;60.54;93606.25;4992574;28;20026;-73
2021/11/29 01:11:20;;;;;;;25.95;16.95;;;;;;;5.14;60.25;93602.91;4992482;28;20614;-73
2021/11/29 01:13:46;;;;;;;29.08;18.23;;;;;;;5.25;59.76;93594.72;4991691;28;20018;-73
2021/11/29 01:16:11;;;;;;;20.98;16.17;;;;;;;5.05;59.93;93599.47;4992749;28;20034;-73
2021/11/29 01:18:37;;;;;;;22.50;16.67;;;;;;;4.74;61.23;93598.75;4992874;28;20105;-73
2021/11/29 01:21:04;;;;;;;25.00;16.60;;;;;;;5.22;60.14;93585.56;4992402;28;20056;-73
2021/11/29 01:23:30;;;;;;;23.77;17.70;;;;;;;5.20;59.56;93599.03;4992053;28;20069;-71
2021/11/29 01:25:55;;;;;;;20.40;16.30;;;;;;;4.92;60.91;93610.91;4987857;28;20101;-74
2021/11/29 01:28:22;;;;;;;20.67;16.65;;;;;;;4.46;62.22;93617.38;4992953;28;20464;-73
2021/11/29 01:30:48;;;;;;;20.27;15.27;;;;;;;3.67;64.94;93606.66;4990971;28;20120;-74
2021/11/29 01:33:14;;;;;;;17.75;15.80;;;;;;;4.18;63.93;93616.75;4991219;28;20033;-72
2021/11/29 01:35:40;;;;;;;22.33;18.13;;;;;;;4.37;63.01;93603.41;4992654;28;20034;-72
2021/11/29 01:38:06;;;;;;;22.75;16.98;;;;;;;4.23;63.28;93602.69;4991119;28;20030;-72
2021/11/29 01:40:32;;;;;;;23.95;17.55;;;;;;;4.17;63.62;93608.09;4991858;28;20105;-72
2021/11/29 01:43:10;;;;;;;24.92;17.50;;;;;;;4.17;63.37;93615.19;4995630;28;20034;-72
2021/11/29 01:45:45;;;;;;;20.35;16.77;;;;;;;3.53;64.94;93604.03;4992374;28;20069;-72
2021/11/29 01:48:12;;;;;;;21.45;16.55;;;;;;;3.68;64.95;93613.44;4992384;28;20026;-72
2021/11/29 01:50:40;;;;;;;22.00;17.10;;;;;;;3.84;64.25;93607.56;4991858;28;20068;-71
2021/11/29 01:53:06;;;;;;;25.23;18.45;;;;;;;4.56;62.16;93617.13;4991003;28;20755;-71
2021/11/29 01:55:32;;;;;;;24.33;17.83;;;;;;;4.50;62.22;93623.56;4995281;28;20030;-71
2021/11/29 01:57:58;;;;;;;29.50;18.17;;;;;;;4.55;61.88;93609.50;4992230;28;20022;-72
2021/11/29 02:00:28;;;;;;;24.90;18.90;;;;;;;4.82;61.38;93616.47;4990598;28;20025;-72
2021/11/29 02:02:55;;;;;;;23.33;16.55;;;;;;;3.97;63.71;93616.47;4992188;28;20031;-72
2021/11/29 02:05:23;;;;;;;22.92;17.60;;;;;;;4.58;61.72;93620.22;4992392;28;20022;-72
2021/11/29 02:07:48;;;;;;;24.38;17.60;;;;;;;4.03;62.87;93612.63;4990959;28;20045;-72
2021/11/29 02:10:15;;;;;;;20.45;16.25;;;;;;;4.28;62.60;93621.00;4997327;28;20022;-72
2021/11/29 02:12:41;;;;;;;24.63;18.17;;;;;;;4.68;61.50;93622.59;4995874;28;20077;-72
2021/11/29 02:15:09;;;;;;;19.77;16.48;;;;;;;4.43;61.63;93617.97;4991885;28;20018;-72
2021/11/29 02:17:35;;;;;;;20.02;16.52;;;;;;;4.50;61.78;93638.59;4991674;28;20027;-72
2021/11/29 02:20:01;;;;;;;22.08;16.63;;;;;;;4.22;62.37;93643.25;4991763;28;20081;-72
2021/11/29 02:22:26;;;;;;;24.67;16.35;;;;;;;4.59;61.20;93631.53;4991540;28;20047;-72
2021/11/29 02:24:52;;;;;;;21.98;18.00;;;;;;;4.36;61.96;93638.69;4991165;28;20033;-72
2021/11/29 02:27:18;;;;;;;25.25;18.02;;;;;;;4.65;61.11;93636.34;4995200;28;20049;-72
2021/11/29 02:29:43;;;;;;;22.40;16.77;;;;;;;4.02;63.43;93642.66;4991418;28;20113;-73
2021/11/29 02:32:09;;;;;;;25.10;17.85;;;;;;;4.15;62.25;93622.63;4990385;28;20018;-72
2021/11/29 02:34:34;;;;;;;29.20;17.95;;;;;;;3.97;63.52;93642.78;4991531;28;20030;-71
2021/11/29 02:37:03;;;;;;;25.05;17.13;;;;;;;3.34;65.31;93633.91;4991700;28;20408;-72
2021/11/29 02:39:29;;;;;;;28.52;18.50;;;;;;;3.88;63.98;93655.84;4990976;28;20057;-72
2021/11/29 02:41:57;;;;;;;28.00;18.83;;;;;;;3.60;64.52;93649.13;4994948;28;20034;-73
2021/11/29 02:44:23;;;;;;;27.85;19.38;;;;;;;3.91;64.00;93655.25;4991396;28;20045;-72
2021/11/29 02:46:49;;;;;;;27.85;19.77;;;;;;;3.82;63.48;93654.41;4990106;28;20022;-72
2021/11/29 02:49:15;;;;;;;28.73;19.13;;;;;;;3.75;64.36;93658.53;4991698;28;20481;-73
2021/11/29 02:51:44;;;;;;;30.92;19.63;;;;;;;3.65;64.12;93657.69;4991602;28;20554;-73
2021/11/29 02:54:24;;;;;;;31.05;19.27;;;;;;;3.95;63.93;93670.47;4991225;28;20026;-73
2021/11/29 02:56:52;;;;;;;27.38;18.67;;;;;;;3.85;63.81;93668.84;5010302;28;21157;-73
2021/11/29 02:59:21;;;;;;;27.25;18.23;;;;;;;3.71;64.30;93681.25;4991875;28;20026;-72
2021/11/29 03:01:50;;;;;;;24.73;18.70;;;;;;;4.22;62.65;93672.97;4990351;28;20026;-73
2021/11/29 03:04:24;;;;;;;24.92;19.50;;;;;;;4.12;62.87;93695.03;4991356;28;20030;-73
2021/11/29 03:06:51;;;;;;;24.52;18.05;;;;;;;4.07;62.95;93683.84;4990328;28;20026;-71
2021/11/29 03:09:17;;;;;;;27.05;19.98;;;;;;;4.59;62.29;93686.81;4990476;28;20105;-71
2021/11/29 03:11:43;;;;;;;26.50;19.50;;;;;;;4.42;61.36;93692.78;4994773;28;20416;-74
2021/11/29 03:14:08;;;;;;;21.55;17.55;;;;;;;3.88;62.99;93682.16;4989790;28;20149;-72
2021/11/29 03:16:34;;;;;;;24.50;18.10;;;;;;;3.77;62.88;93695.81;4991402;28;20535;-72
2021/11/29 03:18:59;;;;;;;27.88;17.58;;;;;;;3.59;63.91;93702.78;4991010;28;20030;-71
2021/11/29 03:21:26;;;;;;;25.20;19.25;;;;;;;3.87;62.76;93680.59;4991155;28;20480;-72
2021/11/29 03:23:55;;;;;;;26.23;17.88;;;;;;;3.30;64.96;93703.09;4989663;28;20476;-72
2021/11/29 03:26:22;;;;;;;25.92;19.45;;;;;;;3.76;63.88;93699.53;5001397;28;20033;-72
2021/11/29 03:28:54;;;;;;;31.50;21.27;;;;;;;4.22;62.33;93706.41;4989531;28;20516;-72
2021/11/29 03:31:22;;;;;;;30.95;20.50;;;;;;;4.49;61.62;93703.66;4990270;28;20030;-72
2021/11/29 03:33:47;;;;;;;28.35;19.02;;;;;;;3.51;64.22;93709.50;4989316;28;20084;-73
2021/11/29 03:36:13;;;;;;;33.20;22.73;;;;;;;4.24;62.80;93706.88;4989461;28;20079;-73
2021/11/29 03:38:39;;;;;;;29.42;20.33;;;;;;;3.83;63.05;93710.41;4989353;28;20384;-72
2021/11/29 03:41:06;;;;;;;30.10;21.08;;;;;;;3.35;64.43;93710.88;4990916;28;20547;-72
2021/11/29 03:43:31;;;;;;;31.38;21.05;;;;;;;3.88;62.77;93716.34;4989432;28;20034;-74
2021/11/29 03:45:57;;;;;;;29.98;21.90;;;;;;;4.09;62.53;93714.03;4989421;28;20088;-74
2021/11/29 03:48:23;;;;;;;31.80;21.08;;;;;;;4.08;62.09;93723.03;4990439;28;20077;-71
2021/11/29 03:50:48;;;;;;;32.63;23.10;;;;;;;4.37;61.64;93708.69;4990261;28;20027;-74
2021/11/29 03:53:14;;;;;;;34.50;22.75;;;;;;;5.08;59.25;93717.47;4988941;28;20061;-75
2021/11/29 03:55:40;;;;;;;34.30;20.83;;;;;;;4.05;61.44;93710.47;4992136;28;20049;-73
2021/11/29 03:58:05;;;;;;;29.90;22.08;;;;;;;4.18;61.82;93716.75;4994060;28;20022;-73
2021/11/29 04:00:31;;;;;;;28.30;21.45;;;;;;;3.94;62.44;93722.28;4989930;28;20038;-73
2021/11/29 04:02:57;;;;;;;33.55;19.80;;;;;;;3.59;63.12;93729.84;4990191;28;20030;-72
2021/11/29 04:05:22;;;;;;;33.10;21.85;;;;;;;3.91;62.54;93712.38;4990137;28;20027;-72
2021/11/29 04:07:48;;;;;;;34.90;22.38;;;;;;;4.20;61.32;93733.03;4990353;28;20557;-72
2021/11/29 04:10:14;;;;;;;34.15;23.38;;;;;;;4.78;60.49;93726.13;4992835;28;20026;-71
2021/11/29 04:12:40;;;;;;;31.15;22.60;;;;;;;4.30;61.38;93732.00;4993547;28;20113;-72
2021/11/29 04:15:06;;;;;;;34.47;23.33;;;;;;;4.43;60.89;93737.22;4988608;28;20377;-72
2021/11/29 04:17:32;;;;;;;34.45;24.10;;;;;;;4.31;61.67;93723.84;4990209;28;20030;-72
2021/11/29 04:19:57;;;;;;;40.67;25.08;;;;;;;3.79;62.67;93738.41;4988565;28;20491;-71
2021/11/29 04:22:23;;;;;;;32.50;22.85;;;;;;;3.36;64.39;93752.63;4988801;28;20400;-73
2021/11/29 04:24:48;;;;;;;34.92;23.27;;;;;;;3.34;64.85;93749.53;4989651;28;20058;-72
2021/11/29 04:27:14;;;;;;;33.70;24.27;;;;;;;3.56;64.07;93751.47;4993750;28;20030;-72
2021/11/29 04:29:44;;;;;;;37.53;22.95;;;;;;;3.05;65.64;93755.06;4989693;28;20034;-74
2021/11/29 04:32:10;;;;;;;35.65;24.33;;;;;;;3.43;64.43;93725.97;4988608;28;20030;-71
2021/11/29 04:34:36;;;;;;;39.17;24.08;;;;;;;3.52;64.18;93750.50;4988841;28;20023;-72
2021/11/29 04:37:03;;;;;;;39.60;25.33;;;;;;;4.24;61.83;93741.88;4990194;28;20396;-72
2021/11/29 04:39:30;;;;;;;36.58;24.88;;;;;;;4.07;62.30;93760.94;4989181;28;20041;-72
2021/11/29 04:41:56;;;;;;;40.90;25.92;;;;;;;4.08;62.71;93762.50;5002775;28;20354;-73
2021/11/29 04:44:21;;;;;;;40.38;25.75;;;;;;;4.63;61.02;93761.53;4993684;28;20041;-72
2021/11/29 04:46:47;;;;;;;41.47;26.60;;;;;;;4.28;61.31;93736.81;4993732;28;20042;-73
2021/11/29 04:49:12;;;;;;;38.80;24.75;;;;;;;3.91;62.82;93764.97;4993546;28;20653;-73
2021/11/29 04:51:38;;;;;;;37.88;25.17;;;;;;;3.99;62.76;93771.38;4993438;28;20052;-72
2021/11/29 04:54:04;;;;;;;37.63;24.05;;;;;;;3.73;63.61;93774.53;4991873;28;20069;-72
2021/11/29 04:56:29;;;;;;;39.55;24.27;;;;;;;3.42;64.51;93766.47;4992944;28;20045;-72
2021/11/29 04:58:55;;;;;;;35.63;24.35;;;;;;;3.70;64.10;93775.13;4997167;28;20038;-74
2021/11/29 05:01:20;;;;;;;35.47;22.92;;;;;;;3.54;65.08;93787.81;4993282;28;20033;-72
2021/11/29 05:03:46;;;;;;;35.70;21.00;;;;;;;3.16;65.76;93783.78;4993306;28;20033;-72
2021/11/29 05:06:11;;;;;;;37.60;23.50;;;;;;;3.63;63.80;93790.50;4992006;28;20033;-73
2021/11/29 05:08:36;;;;;;;34.63;22.38;;;;;;;3.81;63.56;93796.75;4993354;28;20483;-73
2021/11/29 05:11:02;;;;;;;33.55;24.33;;;;;;;4.12;63.61;93796.88;4991179;28;20022;-72
2021/11/29 05:13:29;;;;;;;30.35;21.85;;;;;;;3.97;63.19;93803.25;5004703;28;20022;-72
2021/11/29 05:15:54;;;;;;;36.55;22.23;;;;;;;3.56;64.37;93806.69;4991860;28;20141;-72
2021/11/29 05:18:20;;;;;;;32.88;22.15;;;;;;;3.83;63.52;93805.09;4991847;28;20065;-72
2021/11/29 05:20:45;;;;;;;33.40;22.00;;;;;;;3.64;63.22;93813.91;4992633;28;20085;-72
2021/11/29 05:23:11;;;;;;;33.60;22.63;;;;;;;3.67;64.04;93827.53;4991097;28;20029;-71
2021/11/29 05:25:38;;;;;;;32.28;21.73;;;;;;;3.40;64.80;93818.56;4992976;28;20033;-72
2021/11/29 05:28:03;;;;;;;34.63;22.88;;;;;;;4.01;63.73;93821.88;5011757;28;20026;-72
2021/11/29 05:30:29;;;;;;;34.30;23.67;;;;;;;3.80;63.07;93813.59;4992572;28;20395;-72
2021/11/29 05:32:57;;;;;;;36.03;22.67;;;;;;;3.53;64.31;93828.31;4992758;28;20018;-72
2021/11/29 05:35:23;;;;;;;31.63;23.10;;;;;;;4.51;62.45;93812.09;4992905;28;20061;-72
2021/11/29 05:37:48;;;;;;;33.22;20.33;;;;;;;3.57;63.22;93833.75;4992920;28;20033;-72
2021/11/29 05:40:14;;;;;;;33.08;22.13;;;;;;;4.06;63.04;93838.31;4990838;28;20022;-73
2021/11/29 05:42:40;;;;;;;32.33;22.42;;;;;;;3.85;64.14;93842.44;4994843;28;20122;-72
2021/11/29 05:45:07;;;;;;;27.92;21.45;;;;;;;4.06;62.38;93834.91;4991289;28;20543;-73
2021/11/29 05:47:33;;;;;;;32.58;22.70;;;;;;;4.10;62.98;93859.56;4992456;28;20081;-74
2021/11/29 05:49:58;;;;;;;28.95;22.05;;;;;;;3.87;63.38;93858.69;4991871;28;20026;-74
2021/11/29 05:52:24;;;;;;;30.30;19.88;;;;;;;3.24;65.35;93860.09;4991161;28;20022;-72
2021/11/29 05:54:49;;;;;;;30.75;20.75;;;;;;;3.04;66.09;93866.47;4991731;28;20076;-72
2021/11/29 05:57:15;;;;;;;35.95;23.15;;;;;;;3.45;65.35;93868.41;4992094;28;20092;-73
2021/11/29 05:59:40;;;;;;;30.55;20.63;;;;;;;3.41;64.71;93867.41;4991833;28;20033;-73
2021/11/29 06:02:05;;;;;;;31.13;21.60;;;;;;;3.53;64.73;93880.09;4991855;28;20627;-72
2021/11/29 06:04:31;;;;;;;28.90;20.67;;;;;;;3.37;65.05;93879.56;4992100;28;20424;-72
2021/11/29 06:06:56;;;;;;;28.45;21.77;;;;;;;3.50;64.90;93891.97;4990690;28;20018;-72
2021/11/29 06:09:21;;;;;;;32.28;22.33;;;;;;;3.61;64.83;93903.88;4990328;28;20027;-74
2021/11/29 06:11:48;;;;;;;31.55;21.27;;;;;;;3.81;63.53;93896.69;4989765;28;20080;-73
2021/11/29 06:14:13;;;;;;;30.60;20.95;;;;;;;3.60;64.67;93904.94;4991969;28;20035;-72
2021/11/29 06:16:38;;;;;;;29.42;20.85;;;;;;;3.24;65.84;93906.63;4992054;28;20487;-73
2021/11/29 06:19:04;;;;;;;27.58;20.08;;;;;;;3.29;65.66;93906.53;4991680;28;20026;-72
2021/11/29 06:21:29;;;;;;;30.55;21.13;;;;;;;3.46;65.05;93898.88;4990230;28;20425;-72
2021/11/29 06:23:55;;;;;;;28.13;20.17;;;;;;;3.34;65.00;93916.97;4991727;28;20135;-72
2021/11/29 06:26:21;;;;;;;27.98;19.70;;;;;;;3.29;64.33;93912.56;4997657;28;20034;-72
2021/11/29 06:28:47;;;;;;;28.60;20.85;;;;;;;3.53;64.12;93917.69;4996571;28;20593;-73
2021/11/29 06:31:12;;;;;;;31.55;20.55;;;;;;;4.16;62.94;93935.50;4990804;28;20047;-72
2021/11/29 06:33:38;;;;;;;24.23;20.42;;;;;;;5.14;60.21;93924.47;4990015;28;20053;-72
2021/11/29 06:36:04;;;;;;;27.17;19.67;;;;;;;4.27;61.07;93930.03;4991810;28;20030;-72
2021/11/29 06:38:29;;;;;;;27.60;20.25;;;;;;;4.13;61.66;93954.47;4991473;28;20034;-72
2021/11/29 06:40:57;;;;;;;30.45;20.33;;;;;;;4.26;61.75;93958.22;4992610;28;20100;-72
2021/11/29 06:43:24;;;;;;;22.73;17.52;;;;;;;3.37;63.78;93950.53;4998536;28;20046;-72
2021/11/29 06:45:50;;;;;;;24.65;18.00;;;;;;;3.63;63.89;93954.34;4989728;28;20022;-73
2021/11/29 06:48:16;;;;;;;26.67;19.40;;;;;;;3.29;65.18;93964.34;4990830;28;20125;-72
2021/11/29 06:50:42;;;;;;;26.83;18.85;;;;;;;2.95;66.30;93959.34;4990587;28;20499;-73
2021/11/29 06:53:09;;;;;;;22.92;17.55;;;;;;;2.77;67.08;93966.94;4989404;28;20492;-72
2021/11/29 06:55:34;;;;;;;27.35;20.38;;;;;;;3.68;65.17;93965.81;4989307;28;20428;-73
2021/11/29 06:58:01;;;;;;;26.15;18.63;;;;;;;3.28;65.26;93963.56;4994789;28;20030;-72
2021/11/29 07:00:26;;;;;;;27.52;20.45;;;;;;;4.39;62.83;93972.44;4990501;28;20066;-72
2021/11/29 07:02:53;;;;;;;30.40;19.45;;;;;;;3.75;64.15;93972.28;4989592;28;20034;-73
2021/11/29 07:05:19;;;;;;;26.38;19.25;;;;;;;4.39;61.39;93982.97;4988605;28;20031;-72
2021/11/29 07:07:47;;;;;;;28.13;19.95;;;;;;;4.04;62.51;93987.81;4989714;28;20085;-72
2021/11/29 07:10:12;;;;;;;28.95;21.00;;;;;;;3.92;62.72;93975.13;4990251;28;20045;-74
2021/11/29 07:12:40;;;;;;;26.85;17.77;;;;;;;3.29;64.82;93978.28;4990247;28;20053;-72
2021/11/29 07:15:06;;;;;;;27.00;17.40;;;;;;;3.46;64.63;93998.78;4990681;28;20058;-73
2021/11/29 07:17:32;;;;;;;28.27;20.77;;;;;;;3.78;63.49;94002.47;4989724;28;20027;-71
2021/11/29 07:19:58;;;;;;;28.25;20.08;;;;;;;3.79;63.60;94001.41;4988858;28;20030;-72
2021/11/29 07:22:24;;;;;;;30.42;18.63;;;;;;;3.17;65.24;93998.94;4990686;28;20393;-73
2021/11/29 07:24:52;;;;;;;28.88;21.15;;;;;;;4.08;63.73;94006.44;4988915;28;20076;-74
2021/11/29 07:27:18;;;;;;;29.35;21.08;;;;;;;4.13;62.98;94009.75;4994270;28;20026;-74
2021/11/29 07:29:43;;;;;;;30.25;21.45;;;;;;;3.68;64.37;94015.78;4992271;28;20495;-72
2021/11/29 07:32:09;;;;;;;27.63;19.67;;;;;;;3.57;64.71;94017.78;4990400;28;20029;-72
2021/11/29 07:34:35;;;;;;;28.08;19.92;;;;;;;3.08;66.60;94024.31;4990360;28;20396;-72
2021/11/29 07:37:00;;;;;;;29.83;19.45;;;;;;;2.95;67.38;94032.88;4990360;28;20039;-72
2021/11/29 07:39:26;;;;;;;33.40;22.88;;;;;;;3.53;65.44;94019.44;4990059;28;20029;-72
2021/11/29 07:41:53;;;;;;;32.15;23.23;;;;;;;3.45;65.67;94018.25;4993167;28;20030;-72
2021/11/29 07:44:19;;;;;;;35.28;24.52;;;;;;;4.03;64.76;94032.84;4988993;28;20397;-66
2021/11/29 07:46:44;;;;;;;34.53;23.33;;;;;;;4.61;64.02;94030.47;4989354;28;20037;-70
2021/11/29 07:49:10;;;;;;;37.33;23.10;;;;;;;4.39;61.97;94001.38;4988644;28;20034;-71
2021/11/29 07:51:35;;;;;;;27.05;20.92;;;;;;;4.92;62.42;94046.44;4989724;28;20531;-69
2021/11/29 07:54:01;;;;;;;31.67;22.48;;;;;;;4.64;61.67;94019.34;4990065;28;20500;-69
2021/11/29 07:56:26;;;;;;;28.45;21.63;;;;;;;4.57;63.70;94055.03;4989776;28;20396;-70
2021/11/29 07:58:51;;;;;;;37.58;25.27;;;;;;;5.07;61.99;94055.91;4992252;28;20053;-71
2021/11/29 08:01:17;;;;;;;37.20;24.85;;;;;;;4.51;62.64;94051.72;4989326;28;20030;-70
2021/11/29 08:03:42;;;;;;;38.75;24.23;;;;;;;4.31;63.46;94052.88;4989484;28;20045;-72
2021/11/29 08:06:08;;;;;;;39.67;25.30;;;;;;;4.16;63.81;94047.88;4989974;28;20089;-70
2021/11/29 08:08:33;;;;;;;41.42;25.95;;;;;;;4.26;64.13;94047.69;4988789;28;20076;-70
2021/11/29 08:10:58;;;;;;;39.72;24.83;;;;;;;4.03;64.74;94061.78;4988940;28;20034;-70
2021/11/29 08:13:24;;;;;;;35.78;24.10;;;;;;;3.82;65.97;94069.22;4989641;28;20038;-70
2021/11/29 08:15:49;;;;;;;41.90;24.60;;;;;;;4.28;64.74;94065.81;4990788;28;20080;-69
2021/11/29 08:18:15;;;;;;;30.13;21.02;;;;;;;3.96;65.14;94071.91;4994408;28;20113;-70
2021/11/29 08:20:41;;;;;;;34.55;24.63;;;;;;;4.30;64.89;94084.72;4993434;28;20034;-71
2021/11/29 08:23:08;;;;;;;27.48;17.85;;;;;;;3.21;67.47;94096.38;4993431;28;20031;-71
2021/11/29 08:25:36;;;;;;;21.60;15.77;;;;;;;3.16;66.63;94094.59;4993380;28;20045;-71
2021/11/29 08:28:02;;;;;;;28.77;19.88;;;;;;;3.73;66.47;94099.84;4992867;28;20018;-71
2021/11/29 08:30:27;;;;;;;27.10;18.25;;;;;;;3.50;66.31;94106.78;4991628;28;20056;-71
2021/11/29 08:32:53;;;;;;;32.60;21.48;;;;;;;4.55;63.73;94108.00;4993100;28;20076;-71
2021/11/29 08:35:19;;;;;;;32.38;21.33;;;;;;;4.47;63.11;94084.97;4993509;28;20038;-70
2021/11/29 08:37:46;;;;;;;28.92;19.40;;;;;;;4.02;63.78;94105.72;4993450;28;20040;-70
2021/11/29 08:40:18;;;;;;;27.45;18.00;;;;;;;4.14;63.75;94124.47;4993252;28;20165;-70
2021/11/29 08:42:43;;;;;;;28.77;18.93;;;;;;;3.46;65.71;94122.31;4996409;28;20022;-69
2021/11/29 08:45:09;;;;;;;29.40;18.48;;;;;;;3.80;64.73;94126.59;4991911;28;20038;-70
2021/11/29 08:47:35;;;;;;;24.38;19.10;;;;;;;4.75;62.05;94113.97;4994137;28;20071;-73
2021/11/29 08:50:01;;;;;;;21.70;16.67;;;;;;;3.63;65.00;94127.91;4993356;28;20388;-73
2021/11/29 08:52:29;;;;;;;21.15;17.55;;;;;;;4.21;63.28;94118.09;4993324;28;20116;-68
2021/11/29 08:54:55;;;;;;;23.70;18.65;;;;;;;4.32;63.00;94112.34;4993509;28;20054;-75
2021/11/29 08:57:20;;;;;;;28.00;18.67;;;;;;;4.56;62.24;94141.19;4997413;28;20121;-73
2021/11/29 08:59:45;;;;;;;23.25;16.10;;;;;;;3.28;64.42;94138.88;4992446;28;20037;-73
2021/11/29 09:02:11;;;;;;;20.67;16.42;;;;;;;3.35;65.41;94157.69;4992718;28;20446;-70
2021/11/29 09:04:37;;;;;;;13.95;11.60;;;;;;;2.88;66.38;94163.78;4992797;28;20113;-68
2021/11/29 09:07:02;;;;;;;23.10;14.65;;;;;;;3.38;65.45;94165.81;4993283;28;20030;-70
2021/11/29 09:09:31;;;;;;;19.13;15.30;;;;;;;3.69;64.10;94154.91;4992621;28;20026;-73
2021/11/29 09:11:58;;;;;;;16.60;13.73;;;;;;;3.81;62.78;94176.28;4996344;28;20746;-74
2021/11/29 09:14:24;;;;;;;21.45;15.50;;;;;;;3.68;63.82;94176.97;5012204;28;20030;-75
2021/11/29 09:16:49;;;;;;;20.92;13.32;;;;;;;3.87;62.08;94169.09;4997976;28;20388;-75
2021/11/29 09:19:15;;;;;;;16.27;12.85;;;;;;;3.57;62.61;94186.84;4992601;28;20029;-74
2021/11/29 09:21:40;;;;;;;13.57;11.32;;;;;;;4.18;60.37;94170.22;4992863;28;20030;-73
2021/11/29 09:24:06;;;;;;;17.23;15.20;;;;;;;4.40;60.52;94174.88;4992780;28;20023;-73
2021/11/29 09:26:31;;;;;;;21.30;15.80;;;;;;;4.13;61.98;94182.66;4992430;28;20045;-73
2021/11/29 09:28:57;;;;;;;17.15;14.27;;;;;;;4.20;60.93;94184.94;4991617;28;20077;-74
2021/11/29 09:31:24;;;;;;;20.63;15.48;;;;;;;4.10;61.49;94184.03;4992686;28;20026;-74
2021/11/29 09:33:49;;;;;;;17.60;14.75;;;;;;;4.05;61.09;94178.84;4992936;28;20376;-74
2021/11/29 09:36:16;;;;;;;21.38;16.77;;;;;;;4.50;60.84;94187.06;4992979;28;20041;-75
2021/11/29 09:38:41;;;;;;;20.15;15.48;;;;;;;4.92;59.00;94177.44;4993124;28;20034;-74
2021/11/29 09:41:07;;;;;;;21.95;15.75;;;;;;;4.00;61.06;94186.03;4990430;28;20026;-75
2021/11/29 09:43:32;;;;;;;19.75;15.50;;;;;;;3.81;62.52;94189.44;4992189;28;20182;-75
2021/11/29 09:45:58;;;;;;;21.98;18.00;;;;;;;4.74;61.23;94175.63;4992768;28;20038;-75
2021/11/29 09:48:24;;;;;;;12.57;8.40;;;;;;;3.00;64.64;94190.44;4991451;28;20105;-74
2021/11/29 09:50:55;;;;;;;20.33;16.65;;;;;;;4.46;61.40;94177.44;4992161;28;20112;-74
2021/11/29 09:53:23;;;;;;;18.73;15.87;;;;;;;4.04;61.95;94174.63;4991023;28;20026;-73
2021/11/29 09:55:49;;;;;;;22.20;17.02;;;;;;;4.42;61.14;94195.66;4991748;28;20661;-75
2021/11/29 09:58:15;;;;;;;19.33;15.50;;;;;;;3.42;64.55;94191.53;4992100;28;20117;-73
2021/11/29 10:00:48;;;;;;;22.52;15.13;;;;;;;3.92;63.43;94192.72;4992090;28;20041;-74
2021/11/29 10:03:14;;;;;;;21.65;16.10;;;;;;;4.79;60.13;94184.22;4991961;28;20052;-73
2021/11/29 10:05:39;;;;;;;17.20;11.13;;;;;;;3.80;63.39;94193.13;4992012;28;20109;-73
2021/11/29 10:08:30;;;;;;;22.45;16.67;;;;;;;4.40;60.99;94197.78;4992236;28;20034;-73
2021/11/29 10:11:05;;;;;;;17.23;12.77;;;;;;;4.06;61.73;94195.41;4991346;28;20105;-73
2021/11/29 10:13:45;;;;;;;16.08;12.18;;;;;;;3.57;63.72;94205.25;4991783;28;20178;-74
2021/11/29 10:16:11;;;;;;;12.07;9.15;;;;;;;3.57;63.80;94197.38;4991775;28;20121;-75
2021/11/29 10:18:37;;;;;;;18.50;13.07;;;;;;;4.13;60.97;94198.47;4992119;28;20105;-74
2021/11/29 10:21:06;;;;;;;20.77;14.77;;;;;;;4.47;61.09;94200.06;4991733;28;20030;-72
2021/11/29 10:23:34;;;;;;;17.80;13.75;;;;;;;4.34;60.75;94198.94;4991516;28;20022;-72
2021/11/29 10:26:03;;;;;;;17.60;12.20;;;;;;;3.52;62.62;94209.81;4991439;28;20088;-73
2021/11/29 10:28:42;;;;;;;16.95;12.82;;;;;;;4.26;61.28;94204.88;4991850;28;20392;-73
2021/11/29 10:31:17;;;;;;;15.02;13.52;;;;;;;4.06;62.50;94204.09;5010743;28;20112;-72
2021/11/29 10:33:54;;;;;;;15.18;12.38;;;;;;;3.79;62.28;94203.97;5009660;28;20503;-74
2021/11/29 10:36:23;;;;;;;14.68;12.57;;;;;;;3.98;62.29;94204.72;5009656;28;20257;-73
2021/11/29 10:38:57;;;;;;;15.93;14.13;;;;;;;4.25;61.44;94211.97;5010715;28;20097;-72
2021/11/29 10:41:29;;;;;;;18.63;14.55;;;;;;;4.49;61.46;94211.06;5004667;28;20077;-75
2021/11/29 10:43:54;;;;;;;;;;;;;;;3.32;63.02;94218.72;4995304;28;20026;-73
2021/11/29 10:46:24;;;;;;;15.25;11.30;;;;;;;3.28;64.16;94221.13;4990957;28;19975;-74
2021/11/29 10:48:52;;;;;;;13.50;11.27;;;;;;;3.45;63.40;94193.59;4989699;28;20030;-76
2021/11/29 10:51:19;;;;;;;14.80;13.15;;;;;;;3.56;63.22;94216.84;4990302;28;20033;-73
2021/11/29 10:53:56;;;;;;;17.95;14.77;;;;;;;3.83;62.59;94221.50;4990771;28;20105;-72
2021/11/29 10:56:23;;;;;;;15.63;12.75;;;;;;;3.56;63.54;94223.97;4990291;28;20157;-72
2021/11/29 10:58:51;;;;;;;10.98;8.82;;;;;;;3.15;64.16;94223.63;4994386;28;20030;-74
2021/11/29 11:01:30;;;;;;;17.17;13.50;;;;;;;3.37;63.98;94229.94;4991172;28;20053;-75
2021/11/29 11:03:57;;;;;;;17.02;15.35;;;;;;;4.29;61.52;94235.84;4993546;28;20053;-74
2021/11/29 11:06:38;;;;;;;19.77;14.82;;;;;;;4.07;62.80;94234.59;4991402;28;20556;-75
2021/11/29 11:09:28;;;;;;;17.58;14.73;;;;;;;4.46;60.11;94232.72;4990644;28;20022;-74
2021/11/29 11:12:05;;;;;;;15.20;13.10;;;;;;;3.89;61.17;94233.53;4990210;28;20486;-74
2021/11/29 11:14:32;;;;;;;16.80;14.35;;;;;;;4.26;61.09;94234.59;4986111;28;20034;-75
2021/11/29 11:16:58;;;;;;;17.90;16.05;;;;;;;4.82;59.50;94241.63;4991067;28;20481;-72
2021/11/29 11:19:42;;;;;;;16.10;14.35;;;;;;;4.64;59.81;94234.53;4990230;28;20026;-71
2021/11/29 11:22:24;;;;;;;19.02;13.40;;;;;;;4.10;62.27;94236.66;4990162;28;20064;-71
2021/11/29 11:25:12;;;;;;;20.90;15.97;;;;;;;4.50;61.58;94245.00;4989224;28;20073;-71